sensor_id;sensor_type;location;lat;lon;timestamp;temperature;humidity
56046;DHT22;41913;51.030;3.706;2022-10-22T00:01:26;15.50;99.90
56046;DHT22;41913;51.030;3.706;2022-10-22T00:03:52;15.60;99.90
56046;DHT22;41913;51.030;3.706;2022-10-22T00:06:21;15.50;99.90
56046;DHT22;41913;51.030;3.706;2022-10-22T00:08:47;15.40;99.90
56046;DHT22;41913;51.030;3.706;2022-10-22T00:11:15;15.50;99.90
56046;DHT22;41913;51.030;3.706;2022-10-22T00:13:42;15.40;99.90
56046;DHT22;41913;51.030;3.706;2022-10-22T00:16:07;15.50;99.90
56046;DHT22;41913;51.030;3.706;2022-10-22T00:18:36;15.50;99.90
56046;DHT22;41913;51.030;3.706;2022-10-22T00:21:03;15.50;99.90
56046;DHT22;41913;51.030;3.706;2022-10-22T00:23:30;15.50;99.90
56046;DHT22;41913;51.030;3.706;2022-10-22T00:25:56;15.50;99.90
56046;DHT22;41913;51.030;3.706;2022-10-22T00:28:22;15.60;99.90
56046;DHT22;41913;51.030;3.706;2022-10-22T00:30:58;15.70;99.90
56046;DHT22;41913;51.030;3.706;2022-10-22T00:33:25;15.60;99.90
56046;DHT22;41913;51.030;3.706;2022-10-22T00:38:20;15.50;99.90
56046;DHT22;41913;51.030;3.706;2022-10-22T00:40:47;15.40;99.90
56046;DHT22;41913;51.030;3.706;2022-10-22T00:43:13;15.50;99.90
56046;DHT22;41913;51.030;3.706;2022-10-22T00:45:39;15.60;99.90
56046;DHT22;41913;51.030;3.706;2022-10-22T00:48:18;15.50;99.90
56046;DHT22;41913;51.030;3.706;2022-10-22T00:53:14;15.10;99.90
56046;DHT22;41913;51.030;3.706;2022-10-22T00:55:42;15.50;99.90
56046;DHT22;41913;51.030;3.706;2022-10-22T00:58:09;15.50;99.90
56046;DHT22;41913;51.030;3.706;2022-10-22T01:00:42;15.50;99.90
56046;DHT22;41913;51.030;3.706;2022-10-22T01:03:11;15.40;99.90
56046;DHT22;41913;51.030;3.706;2022-10-22T01:05:40;15.50;99.90
56046;DHT22;41913;51.030;3.706;2022-10-22T01:28:15;15.50;99.90
56046;DHT22;41913;51.030;3.706;2022-10-22T01:30:44;15.40;99.90
56046;DHT22;41913;51.030;3.706;2022-10-22T01:33:11;15.50;99.90
56046;DHT22;41913;51.030;3.706;2022-10-22T01:35:40;15.30;99.90
56046;DHT22;41913;51.030;3.706;2022-10-22T01:38:10;15.40;99.90
56046;DHT22;41913;51.030;3.706;2022-10-22T01:40:37;15.40;99.90
56046;DHT22;41913;51.030;3.706;2022-10-22T01:43:05;15.40;99.90
56046;DHT22;41913;51.030;3.706;2022-10-22T01:45:51;15.30;99.90
56046;DHT22;41913;51.030;3.706;2022-10-22T01:51:15;15.30;99.90
56046;DHT22;41913;51.030;3.706;2022-10-22T01:56:38;15.40;99.90
56046;DHT22;41913;51.030;3.706;2022-10-22T02:01:41;15.40;99.90
56046;DHT22;41913;51.030;3.706;2022-10-22T02:04:14;15.40;99.90
56046;DHT22;41913;51.030;3.706;2022-10-22T02:06:42;15.40;99.90
56046;DHT22;41913;51.030;3.706;2022-10-22T02:09:09;15.40;99.90
56046;DHT22;41913;51.030;3.706;2022-10-22T02:11:35;15.40;99.90
56046;DHT22;41913;51.030;3.706;2022-10-22T02:14:02;15.30;99.90
56046;DHT22;41913;51.030;3.706;2022-10-22T02:16:38;15.40;99.90
56046;DHT22;41913;51.030;3.706;2022-10-22T02:19:14;15.20;99.90
56046;DHT22;41913;51.030;3.706;2022-10-22T02:21:42;15.30;99.90
56046;DHT22;41913;51.030;3.706;2022-10-22T02:24:16;15.30;99.90
56046;DHT22;41913;51.030;3.706;2022-10-22T02:26:49;15.30;99.90
56046;DHT22;41913;51.030;3.706;2022-10-22T02:29:19;15.30;99.90
56046;DHT22;41913;51.030;3.706;2022-10-22T02:31:48;15.10;99.90
56046;DHT22;41913;51.030;3.706;2022-10-22T02:34:16;15.10;99.90
56046;DHT22;41913;51.030;3.706;2022-10-22T02:36:43;15.20;99.90
56046;DHT22;41913;51.030;3.706;2022-10-22T02:39:12;15.20;99.90
56046;DHT22;41913;51.030;3.706;2022-10-22T02:41:45;15.30;99.90
56046;DHT22;41913;51.030;3.706;2022-10-22T02:44:14;15.30;99.90
56046;DHT22;41913;51.030;3.706;2022-10-22T02:46:41;15.30;99.90
56046;DHT22;41913;51.030;3.706;2022-10-22T02:49:08;15.30;99.90
56046;DHT22;41913;51.030;3.706;2022-10-22T02:51:35;15.40;99.90
56046;DHT22;41913;51.030;3.706;2022-10-22T02:54:01;15.40;99.90
56046;DHT22;41913;51.030;3.706;2022-10-22T02:56:26;15.60;99.90
56046;DHT22;41913;51.030;3.706;2022-10-22T02:58:52;15.70;99.90
56046;DHT22;41913;51.030;3.706;2022-10-22T03:01:20;15.70;99.90
56046;DHT22;41913;51.030;3.706;2022-10-22T03:03:46;15.70;99.90
56046;DHT22;41913;51.030;3.706;2022-10-22T03:06:12;15.70;99.90
56046;DHT22;41913;51.030;3.706;2022-10-22T03:08:38;15.60;99.90
56046;DHT22;41913;51.030;3.706;2022-10-22T03:11:06;15.60;99.90
56046;DHT22;41913;51.030;3.706;2022-10-22T03:13:31;15.60;99.90
56046;DHT22;41913;51.030;3.706;2022-10-22T03:15:58;15.60;99.90
56046;DHT22;41913;51.030;3.706;2022-10-22T03:18:23;15.70;99.90
56046;DHT22;41913;51.030;3.706;2022-10-22T03:20:49;15.70;99.90
56046;DHT22;41913;51.030;3.706;2022-10-22T03:23:16;15.70;99.90
56046;DHT22;41913;51.030;3.706;2022-10-22T03:25:43;15.70;99.90
56046;DHT22;41913;51.030;3.706;2022-10-22T03:28:12;15.90;99.90
56046;DHT22;41913;51.030;3.706;2022-10-22T03:30:39;15.90;99.90
56046;DHT22;41913;51.030;3.706;2022-10-22T03:33:05;16.00;99.90
56046;DHT22;41913;51.030;3.706;2022-10-22T03:35:31;15.90;99.90
56046;DHT22;41913;51.030;3.706;2022-10-22T03:40:26;16.00;99.90
56046;DHT22;41913;51.030;3.706;2022-10-22T03:42:52;15.90;99.90
56046;DHT22;41913;51.030;3.706;2022-10-22T03:45:20;15.80;99.90
56046;DHT22;41913;51.030;3.706;2022-10-22T03:47:46;15.70;99.90
56046;DHT22;41913;51.030;3.706;2022-10-22T03:50:14;15.80;99.90
56046;DHT22;41913;51.030;3.706;2022-10-22T03:52:39;15.70;99.90
56046;DHT22;41913;51.030;3.706;2022-10-22T03:55:06;15.70;99.90
56046;DHT22;41913;51.030;3.706;2022-10-22T03:57:32;15.70;99.90
56046;DHT22;41913;51.030;3.706;2022-10-22T03:59:58;15.60;99.90
56046;DHT22;41913;51.030;3.706;2022-10-22T04:04:52;15.60;99.90
56046;DHT22;41913;51.030;3.706;2022-10-22T04:07:19;15.50;99.90
56046;DHT22;41913;51.030;3.706;2022-10-22T04:09:46;15.60;99.90
56046;DHT22;41913;51.030;3.706;2022-10-22T04:12:12;15.50;99.90
56046;DHT22;41913;51.030;3.706;2022-10-22T04:14:38;15.50;99.90
56046;DHT22;41913;51.030;3.706;2022-10-22T04:17:06;15.40;99.90
56046;DHT22;41913;51.030;3.706;2022-10-22T04:22:02;15.40;99.90
56046;DHT22;41913;51.030;3.706;2022-10-22T04:24:29;15.40;99.90
56046;DHT22;41913;51.030;3.706;2022-10-22T04:26:58;15.40;99.90
56046;DHT22;41913;51.030;3.706;2022-10-22T04:29:25;15.40;99.90
56046;DHT22;41913;51.030;3.706;2022-10-22T04:31:53;15.20;99.90
56046;DHT22;41913;51.030;3.706;2022-10-22T04:34:20;15.10;99.90
56046;DHT22;41913;51.030;3.706;2022-10-22T04:36:51;15.20;99.90
56046;DHT22;41913;51.030;3.706;2022-10-22T04:39:17;15.20;99.90
56046;DHT22;41913;51.030;3.706;2022-10-22T04:44:12;15.10;99.90
56046;DHT22;41913;51.030;3.706;2022-10-22T04:46:38;15.10;99.90
56046;DHT22;41913;51.030;3.706;2022-10-22T04:49:06;15.00;99.90
56046;DHT22;41913;51.030;3.706;2022-10-22T04:51:33;15.10;99.90
56046;DHT22;41913;51.030;3.706;2022-10-22T04:54:01;15.10;99.90
56046;DHT22;41913;51.030;3.706;2022-10-22T04:56:30;15.10;99.90
56046;DHT22;41913;51.030;3.706;2022-10-22T04:58:59;15.20;99.90
56046;DHT22;41913;51.030;3.706;2022-10-22T05:01:27;15.20;99.90
56046;DHT22;41913;51.030;3.706;2022-10-22T05:03:56;15.20;99.90
56046;DHT22;41913;51.030;3.706;2022-10-22T05:06:23;15.00;99.90
56046;DHT22;41913;51.030;3.706;2022-10-22T05:08:58;15.00;99.90
56046;DHT22;41913;51.030;3.706;2022-10-22T05:11:25;15.00;99.90
56046;DHT22;41913;51.030;3.706;2022-10-22T05:13:54;15.10;99.90
56046;DHT22;41913;51.030;3.706;2022-10-22T05:16:22;15.10;99.90
56046;DHT22;41913;51.030;3.706;2022-10-22T05:18:50;15.20;99.90
56046;DHT22;41913;51.030;3.706;2022-10-22T05:21:17;15.10;99.90
56046;DHT22;41913;51.030;3.706;2022-10-22T05:23:44;15.10;99.90
56046;DHT22;41913;51.030;3.706;2022-10-22T05:26:12;15.10;99.90
56046;DHT22;41913;51.030;3.706;2022-10-22T05:28:40;15.10;99.90
56046;DHT22;41913;51.030;3.706;2022-10-22T05:31:06;15.10;99.90
56046;DHT22;41913;51.030;3.706;2022-10-22T05:33:34;15.10;99.90
56046;DHT22;41913;51.030;3.706;2022-10-22T05:36:00;15.30;99.90
56046;DHT22;41913;51.030;3.706;2022-10-22T05:38:40;15.30;99.90
56046;DHT22;41913;51.030;3.706;2022-10-22T05:41:10;15.50;99.90
56046;DHT22;41913;51.030;3.706;2022-10-22T05:46:42;15.50;99.90
56046;DHT22;41913;51.030;3.706;2022-10-22T05:55:01;15.60;99.90
56046;DHT22;41913;51.030;3.706;2022-10-22T05:57:44;15.60;99.90
56046;DHT22;41913;51.030;3.706;2022-10-22T06:05:42;15.80;99.90
56046;DHT22;41913;51.030;3.706;2022-10-22T06:11:20;15.80;99.90
56046;DHT22;41913;51.030;3.706;2022-10-22T06:13:52;15.90;99.90
56046;DHT22;41913;51.030;3.706;2022-10-22T06:16:35;15.80;99.90
56046;DHT22;41913;51.030;3.706;2022-10-22T06:19:04;15.90;99.90
56046;DHT22;41913;51.030;3.706;2022-10-22T06:21:38;15.80;99.90
56046;DHT22;41913;51.030;3.706;2022-10-22T06:24:11;15.70;99.90
56046;DHT22;41913;51.030;3.706;2022-10-22T06:27:05;15.80;99.90
56046;DHT22;41913;51.030;3.706;2022-10-22T06:32:43;16.00;99.90
56046;DHT22;41913;51.030;3.706;2022-10-22T06:35:25;16.00;99.90
56046;DHT22;41913;51.030;3.706;2022-10-22T06:43:31;16.00;99.90
56046;DHT22;41913;51.030;3.706;2022-10-22T06:46:07;15.90;99.90
56046;DHT22;41913;51.030;3.706;2022-10-22T06:48:54;16.00;99.90
56046;DHT22;41913;51.030;3.706;2022-10-22T06:51:23;15.80;99.90
56046;DHT22;41913;51.030;3.706;2022-10-22T06:54:09;15.90;99.90
56046;DHT22;41913;51.030;3.706;2022-10-22T06:59:36;15.50;99.90
56046;DHT22;41913;51.030;3.706;2022-10-22T07:02:03;16.20;99.90
56046;DHT22;41913;51.030;3.706;2022-10-22T07:04:30;16.30;99.90
56046;DHT22;41913;51.030;3.706;2022-10-22T07:06:59;16.30;99.90
56046;DHT22;41913;51.030;3.706;2022-10-22T07:09:26;16.30;99.90
56046;DHT22;41913;51.030;3.706;2022-10-22T07:11:59;16.30;99.90
56046;DHT22;41913;51.030;3.706;2022-10-22T07:14:39;16.30;99.90
56046;DHT22;41913;51.030;3.706;2022-10-22T07:17:05;16.40;99.90
56046;DHT22;41913;51.030;3.706;2022-10-22T07:19:35;16.40;99.90
56046;DHT22;41913;51.030;3.706;2022-10-22T07:22:04;16.20;99.90
56046;DHT22;41913;51.030;3.706;2022-10-22T07:24:30;16.20;99.90
56046;DHT22;41913;51.030;3.706;2022-10-22T07:26:55;16.10;99.90
56046;DHT22;41913;51.030;3.706;2022-10-22T07:31:55;16.10;99.90
56046;DHT22;41913;51.030;3.706;2022-10-22T07:36:50;16.20;99.90
56046;DHT22;41913;51.030;3.706;2022-10-22T07:39:16;16.20;99.90
56046;DHT22;41913;51.030;3.706;2022-10-22T07:41:44;16.40;99.90
56046;DHT22;41913;51.030;3.706;2022-10-22T07:44:10;16.60;99.90
56046;DHT22;41913;51.030;3.706;2022-10-22T07:46:36;16.90;99.90
56046;DHT22;41913;51.030;3.706;2022-10-22T07:49:02;17.10;99.90
56046;DHT22;41913;51.030;3.706;2022-10-22T07:51:27;17.30;99.90
56046;DHT22;41913;51.030;3.706;2022-10-22T07:56:56;17.40;99.90
56046;DHT22;41913;51.030;3.706;2022-10-22T08:08:21;20.90;99.90
56046;DHT22;41913;51.030;3.706;2022-10-22T08:10:47;22.10;99.90
56046;DHT22;41913;51.030;3.706;2022-10-22T08:13:16;22.30;99.90
56046;DHT22;41913;51.030;3.706;2022-10-22T08:15:47;22.20;99.90
56046;DHT22;41913;51.030;3.706;2022-10-22T08:18:13;21.40;99.90
56046;DHT22;41913;51.030;3.706;2022-10-22T08:26:40;19.50;99.90
56046;DHT22;41913;51.030;3.706;2022-10-22T08:29:08;19.80;99.90
56046;DHT22;41913;51.030;3.706;2022-10-22T08:31:49;20.20;99.90
56046;DHT22;41913;51.030;3.706;2022-10-22T08:34:16;20.70;99.90
56046;DHT22;41913;51.030;3.706;2022-10-22T08:36:42;21.60;99.90
56046;DHT22;41913;51.030;3.706;2022-10-22T08:39:08;21.70;99.90
56046;DHT22;41913;51.030;3.706;2022-10-22T08:50:25;22.40;99.90
56046;DHT22;41913;51.030;3.706;2022-10-22T08:52:57;22.30;99.90
56046;DHT22;41913;51.030;3.706;2022-10-22T08:55:27;22.10;99.90
56046;DHT22;41913;51.030;3.706;2022-10-22T09:09:04;20.90;99.90
56046;DHT22;41913;51.030;3.706;2022-10-22T09:11:38;21.60;99.90
56046;DHT22;41913;51.030;3.706;2022-10-22T09:19:31;22.00;99.90
56046;DHT22;41913;51.030;3.706;2022-10-22T09:22:17;22.20;99.90
56046;DHT22;41913;51.030;3.706;2022-10-22T09:24:58;22.80;99.90
56046;DHT22;41913;51.030;3.706;2022-10-22T09:27:28;23.70;99.90
56046;DHT22;41913;51.030;3.706;2022-10-22T09:29:55;24.40;99.90
56046;DHT22;41913;51.030;3.706;2022-10-22T09:32:34;24.80;99.90
56046;DHT22;41913;51.030;3.706;2022-10-22T09:35:01;24.30;99.90
56046;DHT22;41913;51.030;3.706;2022-10-22T09:37:27;24.50;99.80
56046;DHT22;41913;51.030;3.706;2022-10-22T09:39:53;25.00;99.50
56046;DHT22;41913;51.030;3.706;2022-10-22T09:42:19;25.40;99.10
56046;DHT22;41913;51.030;3.706;2022-10-22T09:45:01;25.40;98.80
56046;DHT22;41913;51.030;3.706;2022-10-22T09:47:39;25.10;98.80
56046;DHT22;41913;51.030;3.706;2022-10-22T09:52:37;24.20;99.40
56046;DHT22;41913;51.030;3.706;2022-10-22T09:55:17;24.50;99.00
56046;DHT22;41913;51.030;3.706;2022-10-22T09:57:51;24.70;99.40
56046;DHT22;41913;51.030;3.706;2022-10-22T10:00:20;25.10;98.50
56046;DHT22;41913;51.030;3.706;2022-10-22T10:02:47;25.60;98.10
56046;DHT22;41913;51.030;3.706;2022-10-22T10:05:22;25.60;97.60
56046;DHT22;41913;51.030;3.706;2022-10-22T10:07:48;25.30;97.90
56046;DHT22;41913;51.030;3.706;2022-10-22T10:10:18;24.90;98.20
56046;DHT22;41913;51.030;3.706;2022-10-22T10:12:48;24.70;98.30
56046;DHT22;41913;51.030;3.706;2022-10-22T10:20:37;22.50;99.90
56046;DHT22;41913;51.030;3.706;2022-10-22T10:25:53;21.50;99.90
56046;DHT22;41913;51.030;3.706;2022-10-22T10:33:30;22.00;99.90
56046;DHT22;41913;51.030;3.706;2022-10-22T10:41:32;21.30;99.90
56046;DHT22;41913;51.030;3.706;2022-10-22T10:43:58;21.20;99.90
56046;DHT22;41913;51.030;3.706;2022-10-22T10:49:29;21.20;99.90
56046;DHT22;41913;51.030;3.706;2022-10-22T10:54:49;21.30;99.90
56046;DHT22;41913;51.030;3.706;2022-10-22T10:57:44;21.60;99.90
56046;DHT22;41913;51.030;3.706;2022-10-22T11:00:12;21.60;99.90
56046;DHT22;41913;51.030;3.706;2022-10-22T11:14:02;21.30;99.90
56046;DHT22;41913;51.030;3.706;2022-10-22T11:29:54;21.10;99.90
56046;DHT22;41913;51.030;3.706;2022-10-22T11:32:23;21.20;99.90
56046;DHT22;41913;51.030;3.706;2022-10-22T11:34:53;20.90;99.90
56046;DHT22;41913;51.030;3.706;2022-10-22T11:37:21;20.90;99.90
56046;DHT22;41913;51.030;3.706;2022-10-22T11:39:51;20.80;99.90
56046;DHT22;41913;51.030;3.706;2022-10-22T11:42:20;20.70;99.90
56046;DHT22;41913;51.030;3.706;2022-10-22T11:44:57;20.60;99.90
56046;DHT22;41913;51.030;3.706;2022-10-22T11:47:26;20.50;99.90
56046;DHT22;41913;51.030;3.706;2022-10-22T11:49:56;20.40;99.90
56046;DHT22;41913;51.030;3.706;2022-10-22T11:52:23;20.40;99.90
56046;DHT22;41913;51.030;3.706;2022-10-22T11:54:57;20.50;99.90
56046;DHT22;41913;51.030;3.706;2022-10-22T11:57:36;20.50;99.90
56046;DHT22;41913;51.030;3.706;2022-10-22T12:03:17;20.30;99.90
56046;DHT22;41913;51.030;3.706;2022-10-22T12:08:52;20.20;99.90
56046;DHT22;41913;51.030;3.706;2022-10-22T12:17:13;20.70;99.90
56046;DHT22;41913;51.030;3.706;2022-10-22T12:19:41;20.40;99.90
56046;DHT22;41913;51.030;3.706;2022-10-22T12:22:20;20.40;99.90
56046;DHT22;41913;51.030;3.706;2022-10-22T12:24:53;20.40;99.90
56046;DHT22;41913;51.030;3.706;2022-10-22T12:27:23;20.60;99.90
56046;DHT22;41913;51.030;3.706;2022-10-22T12:32:34;20.70;99.90
56046;DHT22;41913;51.030;3.706;2022-10-22T12:35:07;20.80;99.90
56046;DHT22;41913;51.030;3.706;2022-10-22T12:37:36;21.00;99.90
56046;DHT22;41913;51.030;3.706;2022-10-22T12:42:57;21.10;99.90
56046;DHT22;41913;51.030;3.706;2022-10-22T12:45:31;21.10;99.90
56046;DHT22;41913;51.030;3.706;2022-10-22T12:47:58;20.90;99.90
56046;DHT22;41913;51.030;3.706;2022-10-22T12:50:31;20.90;99.90
56046;DHT22;41913;51.030;3.706;2022-10-22T12:53:00;20.80;99.90
56046;DHT22;41913;51.030;3.706;2022-10-22T12:57:55;20.90;99.90
56046;DHT22;41913;51.030;3.706;2022-10-22T13:00:22;20.90;99.90
56046;DHT22;41913;51.030;3.706;2022-10-22T13:02:49;21.10;99.90
56046;DHT22;41913;51.030;3.706;2022-10-22T13:07:48;21.20;99.90
56046;DHT22;41913;51.030;3.706;2022-10-22T13:10:32;21.30;99.90
56046;DHT22;41913;51.030;3.706;2022-10-22T13:12:59;21.30;99.90
56046;DHT22;41913;51.030;3.706;2022-10-22T13:15:34;21.30;99.90
56046;DHT22;41913;51.030;3.706;2022-10-22T13:23:23;21.40;99.90
56046;DHT22;41913;51.030;3.706;2022-10-22T13:25:58;21.30;99.90
56046;DHT22;41913;51.030;3.706;2022-10-22T13:28:25;21.40;99.90
56046;DHT22;41913;51.030;3.706;2022-10-22T13:30:54;21.30;99.90
56046;DHT22;41913;51.030;3.706;2022-10-22T13:33:38;21.50;99.90
56046;DHT22;41913;51.030;3.706;2022-10-22T13:36:07;21.70;99.90
56046;DHT22;41913;51.030;3.706;2022-10-22T13:38:54;21.80;99.90
56046;DHT22;41913;51.030;3.706;2022-10-22T13:45:06;21.90;99.90
56046;DHT22;41913;51.030;3.706;2022-10-22T13:47:34;21.90;99.90
56046;DHT22;41913;51.030;3.706;2022-10-22T13:50:03;21.70;99.90
56046;DHT22;41913;51.030;3.706;2022-10-22T13:53:02;21.40;99.90
56046;DHT22;41913;51.030;3.706;2022-10-22T13:55:31;21.30;99.90
56046;DHT22;41913;51.030;3.706;2022-10-22T13:57:59;21.20;99.90
56046;DHT22;41913;51.030;3.706;2022-10-22T14:03:15;21.30;99.90
56046;DHT22;41913;51.030;3.706;2022-10-22T14:05:50;21.20;99.90
56046;DHT22;41913;51.030;3.706;2022-10-22T14:10:46;20.90;99.90
56046;DHT22;41913;51.030;3.706;2022-10-22T14:13:13;20.90;99.90
56046;DHT22;41913;51.030;3.706;2022-10-22T14:15:45;21.00;99.90
56046;DHT22;41913;51.030;3.706;2022-10-22T14:18:14;21.20;99.90
56046;DHT22;41913;51.030;3.706;2022-10-22T14:20:49;21.30;99.90
56046;DHT22;41913;51.030;3.706;2022-10-22T14:26:01;21.30;99.90
56046;DHT22;41913;51.030;3.706;2022-10-22T14:28:29;21.40;99.90
56046;DHT22;41913;51.030;3.706;2022-10-22T14:31:08;21.40;99.90
56046;DHT22;41913;51.030;3.706;2022-10-22T14:33:50;21.40;99.90
56046;DHT22;41913;51.030;3.706;2022-10-22T14:36:16;21.20;99.90
56046;DHT22;41913;51.030;3.706;2022-10-22T14:38:43;20.90;99.90
56046;DHT22;41913;51.030;3.706;2022-10-22T14:41:20;20.90;99.90
56046;DHT22;41913;51.030;3.706;2022-10-22T14:46:16;20.90;99.90
56046;DHT22;41913;51.030;3.706;2022-10-22T14:48:44;20.90;99.90
56046;DHT22;41913;51.030;3.706;2022-10-22T14:51:16;21.00;99.90
56046;DHT22;41913;51.030;3.706;2022-10-22T14:56:20;21.10;99.90
56046;DHT22;41913;51.030;3.706;2022-10-22T14:58:45;21.30;99.90
56046;DHT22;41913;51.030;3.706;2022-10-22T15:01:19;21.40;99.90
56046;DHT22;41913;51.030;3.706;2022-10-22T15:03:45;21.40;99.90
56046;DHT22;41913;51.030;3.706;2022-10-22T15:06:13;21.20;99.90
56046;DHT22;41913;51.030;3.706;2022-10-22T15:08:40;21.00;99.90
56046;DHT22;41913;51.030;3.706;2022-10-22T15:11:07;20.70;99.90
56046;DHT22;41913;51.030;3.706;2022-10-22T15:13:35;20.60;99.90
56046;DHT22;41913;51.030;3.706;2022-10-22T15:16:04;20.80;99.90
56046;DHT22;41913;51.030;3.706;2022-10-22T15:18:31;21.10;99.90
56046;DHT22;41913;51.030;3.706;2022-10-22T15:23:26;21.30;99.90
56046;DHT22;41913;51.030;3.706;2022-10-22T15:28:41;21.30;99.90
56046;DHT22;41913;51.030;3.706;2022-10-22T15:31:07;21.70;99.90
56046;DHT22;41913;51.030;3.706;2022-10-22T15:33:35;21.70;99.90
56046;DHT22;41913;51.030;3.706;2022-10-22T15:36:12;22.00;99.90
56046;DHT22;41913;51.030;3.706;2022-10-22T15:41:09;21.90;99.90
56046;DHT22;41913;51.030;3.706;2022-10-22T15:43:43;21.50;99.90
56046;DHT22;41913;51.030;3.706;2022-10-22T15:46:16;21.40;99.90
56046;DHT22;41913;51.030;3.706;2022-10-22T15:48:45;21.20;99.90
56046;DHT22;41913;51.030;3.706;2022-10-22T15:51:14;21.10;99.90
56046;DHT22;41913;51.030;3.706;2022-10-22T15:53:42;21.10;99.90
56046;DHT22;41913;51.030;3.706;2022-10-22T15:56:09;21.00;99.90
56046;DHT22;41913;51.030;3.706;2022-10-22T15:58:45;20.70;99.90
56046;DHT22;41913;51.030;3.706;2022-10-22T16:01:12;20.60;99.90
56046;DHT22;41913;51.030;3.706;2022-10-22T16:06:09;20.50;99.90
56046;DHT22;41913;51.030;3.706;2022-10-22T16:08:36;20.30;99.90
56046;DHT22;41913;51.030;3.706;2022-10-22T16:11:03;20.00;99.90
56046;DHT22;41913;51.030;3.706;2022-10-22T16:15:57;19.60;99.90
56046;DHT22;41913;51.030;3.706;2022-10-22T16:18:24;19.50;99.90
56046;DHT22;41913;51.030;3.706;2022-10-22T16:20:51;19.30;99.90
56046;DHT22;41913;51.030;3.706;2022-10-22T16:23:19;19.30;99.90
56046;DHT22;41913;51.030;3.706;2022-10-22T16:25:45;19.20;99.90
56046;DHT22;41913;51.030;3.706;2022-10-22T16:28:12;19.10;99.90
56046;DHT22;41913;51.030;3.706;2022-10-22T16:30:38;18.80;99.90
56046;DHT22;41913;51.030;3.706;2022-10-22T16:33:05;18.60;99.90
56046;DHT22;41913;51.030;3.706;2022-10-22T16:35:33;18.40;99.90
56046;DHT22;41913;51.030;3.706;2022-10-22T16:37:58;18.50;99.90
56046;DHT22;41913;51.030;3.706;2022-10-22T16:40:26;18.40;99.90
56046;DHT22;41913;51.030;3.706;2022-10-22T16:42:55;18.40;99.90
56046;DHT22;41913;51.030;3.706;2022-10-22T16:45:23;18.40;99.90
56046;DHT22;41913;51.030;3.706;2022-10-22T16:47:50;18.30;99.90
56046;DHT22;41913;51.030;3.706;2022-10-22T16:50:16;18.20;99.90
56046;DHT22;41913;51.030;3.706;2022-10-22T16:52:42;18.20;99.90
56046;DHT22;41913;51.030;3.706;2022-10-22T16:55:08;18.10;99.90
56046;DHT22;41913;51.030;3.706;2022-10-22T16:57:36;18.10;99.90
56046;DHT22;41913;51.030;3.706;2022-10-22T17:00:03;18.10;99.90
56046;DHT22;41913;51.030;3.706;2022-10-22T17:02:34;18.00;99.90
56046;DHT22;41913;51.030;3.706;2022-10-22T17:05:02;18.00;99.90
56046;DHT22;41913;51.030;3.706;2022-10-22T17:07:28;17.90;99.90
56046;DHT22;41913;51.030;3.706;2022-10-22T17:09:54;17.90;99.90
56046;DHT22;41913;51.030;3.706;2022-10-22T17:12:21;17.80;99.90
56046;DHT22;41913;51.030;3.706;2022-10-22T17:14:46;17.70;99.90
56046;DHT22;41913;51.030;3.706;2022-10-22T17:17:12;17.70;99.90
56046;DHT22;41913;51.030;3.706;2022-10-22T17:19:38;17.60;99.90
56046;DHT22;41913;51.030;3.706;2022-10-22T17:22:04;17.60;99.90
56046;DHT22;41913;51.030;3.706;2022-10-22T17:24:29;17.50;99.90
56046;DHT22;41913;51.030;3.706;2022-10-22T17:26:56;17.50;99.90
56046;DHT22;41913;51.030;3.706;2022-10-22T17:29:23;17.40;99.90
56046;DHT22;41913;51.030;3.706;2022-10-22T17:31:52;17.50;99.90
56046;DHT22;41913;51.030;3.706;2022-10-22T17:34:20;17.40;99.90
56046;DHT22;41913;51.030;3.706;2022-10-22T17:36:52;17.40;99.90
56046;DHT22;41913;51.030;3.706;2022-10-22T17:39:20;17.40;99.90
56046;DHT22;41913;51.030;3.706;2022-10-22T17:41:48;17.40;99.90
56046;DHT22;41913;51.030;3.706;2022-10-22T17:44:15;17.40;99.90
56046;DHT22;41913;51.030;3.706;2022-10-22T17:46:44;17.40;99.90
56046;DHT22;41913;51.030;3.706;2022-10-22T17:49:18;17.40;99.90
56046;DHT22;41913;51.030;3.706;2022-10-22T17:51:44;17.40;99.90
56046;DHT22;41913;51.030;3.706;2022-10-22T17:54:12;17.30;99.90
56046;DHT22;41913;51.030;3.706;2022-10-22T17:56:41;17.30;99.90
56046;DHT22;41913;51.030;3.706;2022-10-22T17:59:07;17.20;99.90
56046;DHT22;41913;51.030;3.706;2022-10-22T18:01:35;17.20;99.90
56046;DHT22;41913;51.030;3.706;2022-10-22T18:04:09;17.10;99.90
56046;DHT22;41913;51.030;3.706;2022-10-22T18:06:36;17.10;99.90
56046;DHT22;41913;51.030;3.706;2022-10-22T18:09:12;17.10;99.90
56046;DHT22;41913;51.030;3.706;2022-10-22T18:16:39;16.90;99.90
56046;DHT22;41913;51.030;3.706;2022-10-22T18:19:07;16.90;99.90
56046;DHT22;41913;51.030;3.706;2022-10-22T18:21:33;16.90;99.90
56046;DHT22;41913;51.030;3.706;2022-10-22T18:24:02;16.90;99.90
56046;DHT22;41913;51.030;3.706;2022-10-22T18:26:37;16.80;99.90
56046;DHT22;41913;51.030;3.706;2022-10-22T18:29:06;16.80;99.90
56046;DHT22;41913;51.030;3.706;2022-10-22T18:31:34;16.80;99.90
56046;DHT22;41913;51.030;3.706;2022-10-22T18:34:00;16.70;99.90
56046;DHT22;41913;51.030;3.706;2022-10-22T18:36:26;16.70;99.90
56046;DHT22;41913;51.030;3.706;2022-10-22T18:38:55;16.70;99.90
56046;DHT22;41913;51.030;3.706;2022-10-22T18:41:22;16.70;99.90
56046;DHT22;41913;51.030;3.706;2022-10-22T18:46:19;16.70;99.90
56046;DHT22;41913;51.030;3.706;2022-10-22T18:48:47;16.60;99.90
56046;DHT22;41913;51.030;3.706;2022-10-22T18:51:15;16.60;99.90
56046;DHT22;41913;51.030;3.706;2022-10-22T18:56:11;16.50;99.90
56046;DHT22;41913;51.030;3.706;2022-10-22T18:58:41;16.60;99.90
56046;DHT22;41913;51.030;3.706;2022-10-22T19:01:07;16.60;99.90
56046;DHT22;41913;51.030;3.706;2022-10-22T19:03:36;16.60;99.90
56046;DHT22;41913;51.030;3.706;2022-10-22T19:06:02;16.60;99.90
56046;DHT22;41913;51.030;3.706;2022-10-22T19:11:07;16.50;99.90
56046;DHT22;41913;51.030;3.706;2022-10-22T19:13:34;16.50;99.90
56046;DHT22;41913;51.030;3.706;2022-10-22T19:16:03;16.50;99.90
56046;DHT22;41913;51.030;3.706;2022-10-22T19:21:01;16.60;99.90
56046;DHT22;41913;51.030;3.706;2022-10-22T19:23:28;16.40;99.90
56046;DHT22;41913;51.030;3.706;2022-10-22T19:28:31;16.30;99.90
56046;DHT22;41913;51.030;3.706;2022-10-22T19:31:04;16.30;99.90
56046;DHT22;41913;51.030;3.706;2022-10-22T19:33:30;16.40;99.90
56046;DHT22;41913;51.030;3.706;2022-10-22T19:35:57;16.40;99.90
56046;DHT22;41913;51.030;3.706;2022-10-22T19:38:29;16.40;99.90
56046;DHT22;41913;51.030;3.706;2022-10-22T19:40:58;16.40;99.90
56046;DHT22;41913;51.030;3.706;2022-10-22T19:43:25;16.40;99.90
56046;DHT22;41913;51.030;3.706;2022-10-22T19:45:56;16.40;99.90
56046;DHT22;41913;51.030;3.706;2022-10-22T19:48:23;16.30;99.90
56046;DHT22;41913;51.030;3.706;2022-10-22T19:50:56;16.40;99.90